Terminal Aerodrome Forecast
Issued by NWS

Home | Current Version | Previous Version | Text Only | Print | Product List | Glossary On
Versions: 1 2 3 4 5 6 7 8 9 10 11 12 13 14 15 16 17
000
FTUS41 KBOX 241729
TAFHYA
TAF
KHYA 241729Z 2418/2518 30005KT P6SM BKN150
     FM242000 33004KT P6SM -SHRA OVC070
     FM250000 00000KT P6SM OVC060
     FM250900 07008G22KT P6SM BKN070
     FM251100 08010G23KT 6SM -RA BR OVC045
     FM251400 11012G26KT 1 1/2SM -RA BR OVC015=

USA.gov is the U.S. government's official web portal to all federal, state and local government web resources and services.